Latest Weather Observations for Kuitpo

IDS60901

Issued at 11:51 am CDT Friday 18 October 2019 (issued every 10 minutes, with the page automatically refreshed every 10 minutes)

About weather observations | Map of Adelaide area stations | Latest observations for Adelaide area | Other Formats
Station Details ID: 023887 Name: KUITPO FOREST RESERVE Lat: -35.17 Lon: 138.68 Height: 365.0 m
Data from the previous 72 hours. | See also: Recent months at Kuitpo
Date/Time
CDT
Temp
°C
App
Temp
°C
Dew
Point
°C
Rel
Hum
%
Delta-T
°C
Wind Press
QNH
hPa
Press
MSL
hPa
Rain since
9am
mm
Dir  Spd
km/h
Gust
km/h
Spd
kts
Gust
kts
18/11:30am 12.4 7.7 7.9 74 2.2 NW 22 37 12 20 1015.5 1015.1 0.0
18/11:00am 12.1 7.0 7.8 75 2.1 WNW 24 39 13 21 1015.8 1015.4 0.0
18/10:30am 11.9 5.9 7.2 73 2.3 NW 28 41 15 22 1015.6 1015.2 0.0
18/10:00am 11.6 6.6 7.9 78 1.8 NW 24 37 13 20 1015.4 1015.0 0.0
18/09:30am 10.9 7.2 8.0 82 1.4 WNW 17 32 9 17 1015.4 1015.0 0.0
18/09:00am 10.1 6.0 8.0 87 1.0 WNW 19 32 10 17 1015.6 1015.2 0.0
18/08:30am 8.8 5.0 7.4 91 0.7 NW 17 26 9 14 1015.3 1014.9 0.0
18/08:00am 9.0 4.8 7.3 89 0.8 NW 19 26 10 14 1015.3 1014.9 0.0
18/07:30am 8.8 4.3 6.8 87 0.9 NW 20 32 11 17 1015.3 1014.9 0.0
18/07:00am 8.5 4.5 6.8 89 0.8 NW 17 28 9 15 1015.1 1014.7 0.0
18/06:30am 8.1 4.1 6.7 91 0.7 NW 17 24 9 13 1014.8 1014.4 0.0
18/06:00am 8.1 4.1 6.6 90 0.7 NNW 17 24 9 13 1014.2 1013.8 0.0
18/05:30am 8.1 4.1 6.6 90 0.7 NNW 17 24 9 13 1014.4 1014.0 0.0
18/05:00am 7.6 4.3 6.4 92 0.6 NNW 13 19 7 10 1014.3 1013.9 0.0
18/04:30am 7.7 4.4 6.3 91 0.7 NNW 13 17 7 9 1014.4 1014.0 0.0
18/04:00am 8.2 4.7 7.0 92 0.6 NW 15 24 8 13 1014.6 1014.2 0.0
18/03:30am 8.2 4.6 6.8 91 0.7 NW 15 20 8 11 1014.9 1014.5 0.0
18/03:00am 8.2 4.2 6.8 91 0.7 NW 17 24 9 13 1015.2 1014.8 0.0
18/02:30am 8.3 4.4 6.9 91 0.7 NW 17 24 9 13 1015.7 1015.3 0.0
18/02:00am 8.6 5.0 6.9 89 0.8 NW 15 24 8 13 1016.3 1015.9 0.0
18/01:30am 8.8 4.9 6.9 88 0.9 NW 17 24 9 13 1016.7 1016.3 0.0
18/01:00am 8.7 5.5 6.8 88 0.9 NW 13 19 7 10 1016.9 1016.5 0.0
18/12:30am 8.9 5.7 6.7 86 1.0 WNW 13 20 7 11 1017.2 1016.8 0.0
18/12:00am 8.7 5.4 6.3 85 1.1 WNW 13 20 7 11 1017.2 1016.8 0.0
 
Date/Time
CDT
Temp
°C
App
Temp
°C
Dew
Point
°C
Rel
Hum
%
Delta-T
°C
Wind Press
QNH
hPa
Press
MSL
hPa
Rain since
9am
mm
Dir  Spd
km/h
Gust
km/h
Spd
kts
Gust
kts
17/11:30pm 8.7 5.7 6.2 84 1.2 WNW 11 17 6 9 1017.2 1016.8 0.0
17/11:00pm 8.4 5.0 5.9 84 1.2 WNW 13 19 7 10 1017.2 1016.8 0.0
17/10:30pm 8.4 4.9 5.5 82 1.3 WNW 13 19 7 10 1017.2 1016.8 0.0
17/10:00pm 8.3 4.8 5.4 82 1.3 WNW 13 20 7 11 1017.1 1016.7 0.0
17/09:30pm 8.4 5.3 5.5 82 1.3 WNW 11 15 6 8 1017.0 1016.6 0.0
17/09:00pm 8.8 5.7 5.7 81 1.4 WNW 11 17 6 9 1016.9 1016.5 0.0
17/08:30pm 9.0 6.0 5.9 81 1.4 WNW 11 15 6 8 1016.9 1016.5 0.0
17/08:00pm 9.1 6.1 5.8 80 1.5 W 11 17 6 9 1017.0 1016.6 0.0
17/07:30pm 9.9 6.5 5.9 76 1.9 WNW 13 19 7 10 1017.1 1016.7 0.0
17/07:00pm 11.0 7.1 5.3 68 2.7 W 15 22 8 12 1017.2 1016.8 0.0
17/06:30pm 11.8 7.8 5.0 63 3.2 W 15 22 8 12 1017.3 1016.9 0.0
17/06:00pm 12.4 8.4 5.1 61 3.4 W 15 26 8 14 1017.3 1016.9 0.0
17/05:30pm 12.6 7.6 3.8 55 4.0 W 19 28 10 15 1017.1 1016.7 0.0
17/05:00pm 13.1 8.2 4.3 55 4.1 W 19 30 10 16 1016.9 1016.5 0.0
17/04:30pm 13.1 7.7 4.3 55 4.1 W 22 35 12 19 1016.8 1016.4 0.0
17/04:00pm 13.5 8.4 4.1 53 4.4 WSW 20 32 11 17 1016.8 1016.4 0.0
17/03:30pm 13.1 8.0 3.2 51 4.5 WSW 19 26 10 14 1016.9 1016.5 0.0
17/03:00pm 13.0 8.4 3.9 54 4.2 WSW 17 30 9 16 1017.2 1016.8 0.0
17/02:30pm 13.2 8.3 4.1 54 4.2 W 19 30 10 16 1017.4 1017.0 0.0
17/02:00pm 12.6 7.5 3.3 53 4.2 W 19 30 10 16 1017.6 1017.2 0.0
17/01:30pm 12.5 7.5 4.7 59 3.6 W 20 33 11 18 1017.8 1017.4 0.0
17/01:00pm 11.4 6.9 4.4 62 3.2 W 17 28 9 15 1017.9 1017.5 0.0
17/12:30pm 11.0 5.5 4.0 62 3.2 W 22 35 12 19 1017.8 1017.4 0.0
17/12:00pm 11.5 6.4 4.0 60 3.4 WSW 20 32 11 17 1017.7 1017.3 0.0
17/11:30am 11.6 6.0 3.6 58 3.6 WSW 22 39 12 21 1017.6 1017.2 0.0
17/11:00am 11.3 5.3 3.6 59 3.5 WSW 24 39 13 21 1017.7 1017.3 0.0
17/10:30am 10.0 4.7 3.1 62 3.0 WSW 20 39 11 21 1017.6 1017.2 0.0
17/10:15am 9.9 3.0 2.5 60 3.2 W 28 46 15 25 1017.4 1017.0 0.0
17/10:00am 10.2 3.8 3.0 61 3.2 WSW 26 50 14 27 1017.3 1016.9 0.0
17/09:30am 9.5 2.9 4.3 70 2.3 WSW 28 46 15 25 1016.9 1016.5 0.0
17/09:00am 9.4 2.8 4.2 70 2.3 WSW 28 48 15 26 1016.4 1016.0 6.4
17/08:31am 9.1 2.3 4.9 75 1.9 WSW 30 48 16 26 1015.8 1015.4 6.4
17/08:30am 9.1 1.9 4.9 75 1.9 WSW 32 48 17 26 1015.8 1015.4 6.4
17/08:00am 8.2 1.7 4.8 79 1.5 WSW 28 46 15 25 1015.5 1015.1 6.4
17/07:49am 8.2 1.7 4.8 79 1.5 WSW 28 46 15 25 1015.5 1015.1 6.4
17/07:30am 7.7 2.4 5.2 84 1.1 WSW 22 37 12 20 1015.3 1014.9 6.4
17/07:00am 7.6 1.1 4.6 81 1.3 WSW 28 44 15 24 1015.1 1014.7 6.4
17/06:50am 7.6 1.0 4.4 80 1.4 WSW 28 48 15 26 1014.9 1014.5 6.4
17/06:30am 7.3 2.0 4.8 84 1.1 WSW 22 37 12 20 1014.7 1014.3 6.4
17/06:00am 6.9 2.1 4.6 85 1.0 WSW 19 30 10 16 1014.4 1014.0 6.4
17/05:30am 7.4 1.3 4.9 84 1.1 WSW 26 43 14 23 1014.0 1013.6 6.4
17/05:00am 7.4 2.5 4.9 84 1.1 WSW 20 32 11 17 1013.9 1013.5 6.4
17/04:30am 7.6 2.3 4.9 83 1.2 WSW 22 39 12 21 1013.8 1013.3 6.4
17/04:00am 7.6 2.3 5.1 84 1.1 WSW 22 37 12 20 1013.7 1013.2 6.4
17/03:30am 7.5 2.2 4.8 83 1.2 WSW 22 41 12 22 1013.8 1013.3 6.4
17/03:00am 7.2 1.7 4.2 81 1.3 WSW 22 43 12 23 1013.7 1013.2 6.4
17/02:30am 7.3 1.9 4.4 82 1.3 WSW 22 39 12 21 1013.6 1013.1 6.4
17/02:00am 7.4 0.8 4.0 79 1.5 WSW 28 44 15 24 1013.7 1013.2 6.4
17/01:32am 7.7 1.2 4.5 80 1.4 WSW 28 46 15 25 1013.7 1013.2 6.4
17/01:30am 7.6 1.4 4.4 80 1.4 WSW 26 46 14 25 1013.8 1013.3 6.4
17/01:00am 7.6 1.8 4.6 81 1.3 WSW 24 37 13 20 1013.8 1013.3 6.4
17/12:30am 7.7 2.4 5.2 84 1.1 WSW 22 33 12 18 1013.8 1013.3 6.4
17/12:00am 7.2 1.6 5.5 89 0.8 W 24 39 13 21 1013.7 1013.2 6.2
 
Date/Time
CDT
Temp
°C
App
Temp
°C
Dew
Point
°C
Rel
Hum
%
Delta-T
°C
Wind Press
QNH
hPa
Press
MSL
hPa
Rain since
9am
mm
Dir  Spd
km/h
Gust
km/h
Spd
kts
Gust
kts
16/11:38pm 7.1 0.7 5.1 87 0.9 WSW 28 54 15 29 1013.5 1013.0 6.2
16/11:30pm 8.5 3.6 5.1 79 1.6 W 20 35 11 19 1013.5 1013.0 5.4
16/11:00pm 8.4 2.9 6.0 85 1.1 WSW 24 46 13 25 1013.5 1013.0 5.4
16/10:30pm 7.9 3.3 6.5 91 0.7 W 20 33 11 18 1013.4 1012.9 5.4
16/10:00pm 7.7 2.0 6.5 92 0.6 WSW 26 46 14 25 1013.2 1012.8 5.4
16/09:47pm 8.1 2.8 6.6 90 0.7 W 24 59 13 32 1013.1 1012.7 5.2
16/09:30pm 8.5 4.2 7.9 96 0.3 W 20 32 11 17 1013.0 1012.6 4.8
16/09:00pm 8.5 4.3 8.2 98 0.1 W 20 28 11 15 1013.0 1012.6 4.8
16/08:30pm 8.0 2.9 7.6 97 0.2 WSW 24 39 13 21 1012.8 1012.4 4.8
16/08:25pm 8.1 2.2 7.7 97 0.2 WSW 28 52 15 28 1012.8 1012.4 4.4
16/08:00pm 8.2 3.5 7.6 96 0.3 W 22 33 12 18 1012.5 1012.1 3.0
16/07:30pm 9.7 5.6 8.8 94 0.5 W 20 35 11 19 1012.0 1011.6 0.6
16/07:00pm 9.7 5.7 9.2 97 0.3 W 20 32 11 17 1012.0 1011.6 0.4
16/06:30pm 10.7 4.9 8.1 84 1.3 W 28 50 15 27 1011.6 1011.2 0.0
16/06:01pm 12.2 6.2 6.9 70 2.6 W 28 46 15 25 1011.3 1010.8 0.0
16/06:00pm 12.3 5.9 7.0 70 2.6 W 30 46 16 25 1011.3 1010.8 0.0
16/05:30pm 13.3 7.0 7.3 67 3.0 WSW 30 50 16 27 1011.3 1010.8 0.0
16/05:03pm 13.3 7.1 6.2 62 3.4 W 28 54 15 29 1011.2 1010.7 0.0
16/05:00pm 13.5 8.3 7.1 65 3.2 WSW 24 43 13 23 1011.3 1010.8 0.0
16/04:46pm 13.4 7.3 6.5 63 3.4 WSW 28 46 15 25 1011.2 1010.7 0.0
16/04:30pm 13.1 6.7 6.9 66 3.1 W 30 44 16 24 1011.0 1010.5 0.0
16/04:06pm 13.4 6.9 6.3 62 3.5 W 30 48 16 26 1011.0 1010.5 0.0
16/04:00pm 13.9 8.2 6.5 61 3.6 WSW 26 44 14 24 1011.0 1010.5 0.0
16/03:50pm 13.8 7.7 6.7 62 3.5 W 28 46 15 25 1011.0 1010.5 0.0
16/03:30pm 13.5 8.4 7.7 68 2.9 W 24 39 13 21 1011.2 1010.7 0.0
16/03:00pm 13.4 9.0 7.4 67 3.0 WSW 20 33 11 18 1011.5 1011.1 0.0
16/02:30pm 12.6 8.1 7.1 69 2.7 W 20 35 11 19 1011.6 1011.2 0.0
16/02:00pm 12.7 8.0 7.8 72 2.5 WSW 22 32 12 17 1011.9 1011.5 0.0
16/01:30pm 12.8 8.9 7.0 68 2.9 W 17 30 9 16 1012.0 1011.6 0.0
16/01:00pm 14.0 9.7 6.8 62 3.6 WSW 19 32 10 17 1011.9 1011.5 0.0
16/12:30pm 14.1 9.7 7.6 65 3.3 WSW 20 32 11 17 1012.0 1011.6 0.0
16/12:00pm 13.9 10.5 9.3 74 2.4 W 17 26 9 14 1012.1 1011.7 0.0
16/11:30am 12.7 8.5 7.6 71 2.5 WSW 19 32 10 17 1012.2 1011.8 0.0
16/11:00am 12.5 9.3 11.1 91 0.7 WSW 19 30 10 16 1012.2 1011.8 0.0
16/10:30am 11.7 9.0 11.7 100 0.0 WSW 17 26 9 14 1012.1 1011.7 0.0
16/10:00am 11.4 8.6 11.4 100 0.0 WSW 17 24 9 13 1012.2 1011.8 0.0
16/09:30am 11.0 7.7 11.0 100 0.0 WSW 19 28 10 15 1012.2 1011.8 0.0
16/09:00am 10.5 7.5 10.5 100 0.0 WSW 17 28 9 15 1012.3 1011.9 12.4
16/08:30am 10.6 8.0 10.6 100 0.0 W 15 28 8 15 1012.3 1011.9 12.2
16/08:00am 10.5 7.1 10.5 100 0.0 WSW 19 28 10 15 1012.1 1011.7 12.0
16/07:30am 10.5 8.2 10.5 100 0.0 W 13 22 7 12 1011.7 1011.3 12.0
16/07:00am 10.5 7.8 10.5 100 0.0 W 15 24 8 13 1011.3 1010.8 12.0
16/06:30am 10.4 8.1 10.4 100 0.0 WNW 13 20 7 11 1010.9 1010.4 11.8
16/06:00am 10.4 8.1 10.4 100 0.0 W 13 20 7 11 1010.9 1010.4 11.8
16/05:30am 10.4 8.9 10.4 100 0.0 W 9 17 5 9 1010.8 1010.3 11.8
16/05:00am 10.2 8.6 10.1 99 0.1 WSW 9 13 5 7 1010.3 1009.9 10.4
16/04:30am 10.2 7.8 9.9 98 0.2 WSW 13 19 7 10 1010.9 1010.4 9.4
16/04:00am 10.3 7.8 9.8 97 0.3 W 13 20 7 11 1011.1 1010.6 8.8
16/03:30am 10.6 7.8 10.0 96 0.3 WSW 15 22 8 12 1010.8 1010.3 7.4
16/03:00am 10.7 9.0 9.8 94 0.5 WSW 9 17 5 9 1009.9 1009.5 7.2
16/02:30am 11.0 9.9 9.8 92 0.6 W 6 7 3 4 1010.6 1010.1 6.8
16/02:00am 10.8 9.1 9.7 93 0.6 WSW 9 11 5 6 1010.6 1010.1 6.8
16/01:30am 10.8 9.4 9.4 91 0.7 WSW 7 11 4 6 1011.4 1010.9 6.6
16/01:00am 10.9 10.0 9.2 89 0.9 N 4 7 2 4 1012.8 1012.4 5.2
16/12:30am 11.2 10.4 9.8 91 0.7 S 4 9 2 5 1012.2 1011.8 4.2
16/12:00am 10.7 10.0 10.1 96 0.3 ESE 4 11 2 6 1012.2 1011.8 4.0
 
Date/Time
CDT
Temp
°C
App
Temp
°C
Dew
Point
°C
Rel
Hum
%
Delta-T
°C
Wind Press
QNH
hPa
Press
MSL
hPa
Rain since
9am
mm
Dir  Spd
km/h
Gust
km/h
Spd
kts
Gust
kts
15/11:30pm 10.9 9.8 10.6 98 0.2 NE 7 13 4 7 1012.6 1012.2 3.6
15/11:00pm 10.8 9.3 10.5 98 0.2 NNE 9 11 5 6 1013.5 1013.0 3.6
15/10:30pm 10.9 9.8 10.6 98 0.2 NE 7 13 4 7 1013.1 1012.7 3.4
15/10:00pm 11.0 10.1 10.7 98 0.2 N 6 9 3 5 1013.8 1013.3 3.2
15/09:30pm 11.0 9.9 10.7 98 0.2 NNE 7 9 4 5 1014.1 1013.7 2.2
15/09:00pm 11.0 10.5 10.7 98 0.2 SSE 4 9 2 5 1014.3 1013.9 1.8
15/08:30pm 11.0 10.1 10.7 98 0.2 E 6 7 3 4 1013.7 1013.2 1.6
15/08:00pm 11.1 10.0 10.8 98 0.2 SE 7 11 4 6 1013.7 1013.2 1.6
15/07:30pm 11.3 9.9 10.8 97 0.3 SSE 9 15 5 8 1013.2 1012.8 1.6
15/07:00pm 11.8 10.9 11.2 96 0.3 ESE 7 11 4 6 1013.0 1012.6 1.6
15/06:30pm 12.0 10.7 11.4 96 0.3 E 9 13 5 7 1013.1 1012.7 1.6
15/06:00pm 12.3 12.0 11.5 95 0.4 WNW 4 11 2 6 1013.0 1012.6 1.6
15/05:30pm 12.9 12.2 12.0 94 0.5 SSE 7 11 4 6 1012.9 1012.5 1.4
15/05:00pm 12.9 12.4 12.1 95 0.4 SSW 6 7 3 4 1012.8 1012.4 1.4
15/04:30pm 13.8 14.1 12.2 90 0.9 SW 2 7 1 4 1012.9 1012.5 1.2
15/04:00pm 13.0 13.1 11.6 91 0.8 NE 2 9 1 5 1012.3 1011.9 1.0
15/03:30pm 13.2 12.9 10.0 81 1.7 SW 2 7 1 4 1013.4 1012.9 0.2
15/03:00pm 13.4 10.5 9.5 77 2.0 WSW 15 24 8 13 1014.2 1013.8 0.0
15/02:30pm 15.5 13.1 8.7 64 3.5 WSW 11 17 6 9 1013.5 1013.0 0.0
15/02:00pm 17.0 15.0 8.7 58 4.3 W 9 17 5 9 1013.5 1013.0 0.0
15/01:30pm 16.8 14.5 7.4 54 4.8 SSW 9 13 5 7 1013.2 1012.8 0.0
15/01:00pm 16.4 14.3 8.4 59 4.2 WNW 9 15 5 8 1013.7 1013.2 0.0
15/12:30pm 15.7 13.8 8.9 64 3.5 W 9 17 5 9 1013.9 1013.5 0.0
15/12:00pm 14.7 11.0 8.0 64 3.4 W 17 26 9 14 1014.6 1014.2 0.0

Latest Capital City Observations: Canberra | Sydney | Melbourne | Brisbane | Adelaide | Perth | Hobart | Darwin

Other formats

Comma delimited format used in spreadsheet applications
http://www.bom.gov.au/fwo/IDS60901/IDS60901.94683.axf

JavaScript Object Notation format (JSON) in row-major order
http://www.bom.gov.au/fwo/IDS60901/IDS60901.94683.json

Data quality

Most of these data are generated automatically and are frequently updated. Quality checks on data are not normally performed. It is possible for incorrect values to appear. Refer to information at About Latest Weather Observations and please check the disclaimer before using these data.